sensor_id;sensor_type;location;lat;lon;timestamp;pressure;altitude;pressure_sealevel;temperature;humidity
63535;BME280;55128;50.230;18.944;2023-02-14T00:02:51;100233.66;;;5.25;80.44
63535;BME280;55128;50.230;18.944;2023-02-14T00:07:51;100232.78;;;5.30;80.37
63535;BME280;55128;50.230;18.944;2023-02-14T00:12:51;100236.28;;;5.24;79.77
63535;BME280;55128;50.230;18.944;2023-02-14T00:17:54;100229.25;;;5.23;80.08
63535;BME280;55128;50.230;18.944;2023-02-14T00:22:55;100234.50;;;5.20;80.01
63535;BME280;55128;50.230;18.944;2023-02-14T00:27:55;100236.28;;;5.32;79.72
63535;BME280;55128;50.230;18.944;2023-02-14T00:32:56;100229.25;;;5.23;79.93
63535;BME280;55128;50.230;18.944;2023-02-14T00:37:56;100238.00;;;5.19;79.80
63535;BME280;55128;50.230;18.944;2023-02-14T00:42:57;100238.84;;;5.01;80.03
63535;BME280;55128;50.230;18.944;2023-02-14T00:47:57;100243.22;;;4.96;80.60
63535;BME280;55128;50.230;18.944;2023-02-14T00:52:57;100240.63;;;5.10;79.58
63535;BME280;55128;50.230;18.944;2023-02-14T00:57:58;100241.50;;;5.12;79.95
63535;BME280;55128;50.230;18.944;2023-02-14T01:02:58;100241.47;;;4.95;80.25
63535;BME280;55128;50.230;18.944;2023-02-14T01:07:58;100242.38;;;5.06;79.54
63535;BME280;55128;50.230;18.944;2023-02-14T01:12:59;100233.59;;;5.04;79.63
63535;BME280;55128;50.230;18.944;2023-02-14T01:17:59;100239.72;;;4.98;79.88
63535;BME280;55128;50.230;18.944;2023-02-14T01:23:00;100234.44;;;4.95;79.74
63535;BME280;55128;50.230;18.944;2023-02-14T01:28:00;100226.53;;;4.91;80.06
63535;BME280;55128;50.230;18.944;2023-02-14T01:33:00;100220.41;;;4.89;79.63
63535;BME280;55128;50.230;18.944;2023-02-14T01:38:01;100228.28;;;4.92;79.71
63535;BME280;55128;50.230;18.944;2023-02-14T01:43:01;100215.09;;;4.84;79.89
63535;BME280;55128;50.230;18.944;2023-02-14T01:48:02;100210.75;;;4.84;79.74
63535;BME280;55128;50.230;18.944;2023-02-14T01:53:06;100205.47;;;4.83;79.55
63535;BME280;55128;50.230;18.944;2023-02-14T01:58:14;100204.59;;;4.92;79.72
63535;BME280;55128;50.230;18.944;2023-02-14T02:03:19;100194.06;;;4.81;79.64
63535;BME280;55128;50.230;18.944;2023-02-14T02:08:20;100198.44;;;4.90;79.34
63535;BME280;55128;50.230;18.944;2023-02-14T02:13:21;100198.44;;;4.82;79.50
63535;BME280;55128;50.230;18.944;2023-02-14T02:18:46;100193.16;;;4.77;79.41
63535;BME280;55128;50.230;18.944;2023-02-14T02:24:16;100193.19;;;4.79;79.22
63535;BME280;55128;50.230;18.944;2023-02-14T02:40:22;100201.06;;;4.82;79.05
63535;BME280;55128;50.230;18.944;2023-02-14T02:51:00;100209.00;;;4.88;78.58
63535;BME280;55128;50.230;18.944;2023-02-14T02:56:27;100209.88;;;4.90;78.32
63535;BME280;55128;50.230;18.944;2023-02-14T03:01:55;100213.31;;;4.78;78.44
63535;BME280;55128;50.230;18.944;2023-02-14T03:07:01;100215.97;;;4.77;78.86
63535;BME280;55128;50.230;18.944;2023-02-14T03:22:59;100202.78;;;4.72;78.57
63535;BME280;55128;50.230;18.944;2023-02-14T03:28:10;100201.03;;;4.70;78.29
63535;BME280;55128;50.230;18.944;2023-02-14T03:38:42;100205.41;;;4.60;78.33
63535;BME280;55128;50.230;18.944;2023-02-14T03:43:48;100220.31;;;4.68;78.15
63535;BME280;55128;50.230;18.944;2023-02-14T03:48:52;100215.06;;;4.68;78.13
63535;BME280;55128;50.230;18.944;2023-02-14T03:53:56;100218.56;;;4.72;77.90
63535;BME280;55128;50.230;18.944;2023-02-14T03:59:02;100219.44;;;4.66;78.01
63535;BME280;55128;50.230;18.944;2023-02-14T04:04:06;100213.25;;;4.54;78.48
63535;BME280;55128;50.230;18.944;2023-02-14T04:09:08;100214.09;;;4.54;78.50
63535;BME280;55128;50.230;18.944;2023-02-14T04:14:08;100216.78;;;4.59;78.40
63535;BME280;55128;50.230;18.944;2023-02-14T04:19:08;100215.84;;;4.52;78.30
63535;BME280;55128;50.230;18.944;2023-02-14T04:24:24;100207.06;;;4.44;78.11
63535;BME280;55128;50.230;18.944;2023-02-14T04:29:24;100207.09;;;4.47;78.14
63535;BME280;55128;50.230;18.944;2023-02-14T04:34:27;100213.25;;;4.57;77.81
63535;BME280;55128;50.230;18.944;2023-02-14T04:39:28;100207.13;;;4.55;77.79
63535;BME280;55128;50.230;18.944;2023-02-14T04:44:28;100215.91;;;4.60;77.80
63535;BME280;55128;50.230;18.944;2023-02-14T04:49:29;100229.94;;;4.62;77.46
63535;BME280;55128;50.230;18.944;2023-02-14T04:54:29;100219.34;;;4.46;77.81
63535;BME280;55128;50.230;18.944;2023-02-14T04:59:30;100222.91;;;4.56;77.78
63535;BME280;55128;50.230;18.944;2023-02-14T05:04:30;100221.09;;;4.44;77.89
63535;BME280;55128;50.230;18.944;2023-02-14T05:09:31;100233.31;;;4.36;78.53
63535;BME280;55128;50.230;18.944;2023-02-14T05:14:31;100229.78;;;4.28;78.53
63535;BME280;55128;50.230;18.944;2023-02-14T05:19:31;100235.88;;;4.25;78.84
63535;BME280;55128;50.230;18.944;2023-02-14T05:24:32;100242.00;;;4.26;78.59
63535;BME280;55128;50.230;18.944;2023-02-14T05:29:32;100234.13;;;4.27;78.35
63535;BME280;55128;50.230;18.944;2023-02-14T05:34:33;100235.94;;;4.35;78.39
63535;BME280;55128;50.230;18.944;2023-02-14T05:39:33;100238.59;;;4.42;78.05
63535;BME280;55128;50.230;18.944;2023-02-14T05:44:34;100241.28;;;4.50;77.91
63535;BME280;55128;50.230;18.944;2023-02-14T05:49:34;100244.72;;;4.34;78.43
63535;BME280;55128;50.230;18.944;2023-02-14T05:54:35;100245.47;;;4.20;78.16
63535;BME280;55128;50.230;18.944;2023-02-14T05:59:35;100248.13;;;4.17;78.68
63535;BME280;55128;50.230;18.944;2023-02-14T06:04:36;100258.75;;;4.36;78.30
63535;BME280;55128;50.230;18.944;2023-02-14T06:09:36;100250.03;;;4.52;77.94
63535;BME280;55128;50.230;18.944;2023-02-14T06:14:37;100264.97;;;4.53;77.29
63535;BME280;55128;50.230;18.944;2023-02-14T06:19:39;100262.31;;;4.47;77.37
63535;BME280;55128;50.230;18.944;2023-02-14T06:24:40;100274.56;;;4.45;77.77
63535;BME280;55128;50.230;18.944;2023-02-14T06:29:40;100267.56;;;4.48;77.39
63535;BME280;55128;50.230;18.944;2023-02-14T06:34:41;100264.94;;;4.50;77.76
63535;BME280;55128;50.230;18.944;2023-02-14T06:39:41;100265.81;;;4.47;77.71
63535;BME280;55128;50.230;18.944;2023-02-14T06:44:42;100278.00;;;4.35;78.02
63535;BME280;55128;50.230;18.944;2023-02-14T06:49:42;100272.03;;;4.65;77.70
63535;BME280;55128;50.230;18.944;2023-02-14T06:54:42;100275.50;;;4.53;77.37
63535;BME280;55128;50.230;18.944;2023-02-14T06:59:43;100275.53;;;4.62;77.70
63535;BME280;55128;50.230;18.944;2023-02-14T07:04:43;100274.66;;;4.65;77.37
63535;BME280;55128;50.230;18.944;2023-02-14T07:09:44;100276.44;;;4.71;77.66
63535;BME280;55128;50.230;18.944;2023-02-14T07:14:44;100281.75;;;4.75;77.66
63535;BME280;55128;50.230;18.944;2023-02-14T07:19:44;100280.84;;;4.73;76.97
63535;BME280;55128;50.230;18.944;2023-02-14T07:24:45;100294.97;;;4.92;76.69
63535;BME280;55128;50.230;18.944;2023-02-14T07:29:45;100283.53;;;4.82;76.25
63535;BME280;55128;50.230;18.944;2023-02-14T07:34:46;100288.84;;;4.98;76.63
63535;BME280;55128;50.230;18.944;2023-02-14T07:39:47;100289.78;;;5.18;76.14
63535;BME280;55128;50.230;18.944;2023-02-14T07:44:47;100298.56;;;5.17;76.00
63535;BME280;55128;50.230;18.944;2023-02-14T07:49:47;100285.44;;;5.22;76.15
63535;BME280;55128;50.230;18.944;2023-02-14T07:54:48;100289.78;;;5.23;75.65
63535;BME280;55128;50.230;18.944;2023-02-14T07:59:48;100287.19;;;5.38;74.95
63535;BME280;55128;50.230;18.944;2023-02-14T08:04:49;100288.97;;;5.41;74.79
63535;BME280;55128;50.230;18.944;2023-02-14T08:09:49;100290.75;;;5.56;74.39
63535;BME280;55128;50.230;18.944;2023-02-14T08:14:50;100290.78;;;5.65;74.21
63535;BME280;55128;50.230;18.944;2023-02-14T08:19:55;100290.75;;;5.83;74.26
63535;BME280;55128;50.230;18.944;2023-02-14T08:24:55;100296.03;;;5.93;74.00
63535;BME280;55128;50.230;18.944;2023-02-14T08:29:55;100298.66;;;6.34;72.95
63535;BME280;55128;50.230;18.944;2023-02-14T08:34:56;100296.91;;;6.44;71.98
63535;BME280;55128;50.230;18.944;2023-02-14T08:39:56;100293.34;;;6.64;71.27
63535;BME280;55128;50.230;18.944;2023-02-14T08:44:56;100293.34;;;6.60;70.32
63535;BME280;55128;50.230;18.944;2023-02-14T08:49:57;100310.94;;;6.63;70.22
63535;BME280;55128;50.230;18.944;2023-02-14T08:54:57;100317.09;;;6.64;69.77
63535;BME280;55128;50.230;18.944;2023-02-14T08:59:58;100307.38;;;6.79;69.47
63535;BME280;55128;50.230;18.944;2023-02-14T09:04:58;100310.88;;;6.85;68.78
63535;BME280;55128;50.230;18.944;2023-02-14T09:10:00;100323.19;;;6.84;68.17
63535;BME280;55128;50.230;18.944;2023-02-14T09:15:00;100316.16;;;6.83;68.11
63535;BME280;55128;50.230;18.944;2023-02-14T09:20:00;100320.56;;;6.81;67.38
63535;BME280;55128;50.230;18.944;2023-02-14T09:25:01;100317.88;;;6.93;68.05
63535;BME280;55128;50.230;18.944;2023-02-14T09:30:01;100317.81;;;7.13;66.14
63535;BME280;55128;50.230;18.944;2023-02-14T09:35:03;100322.25;;;6.94;67.05
63535;BME280;55128;50.230;18.944;2023-02-14T09:40:04;100325.75;;;7.12;65.86
63535;BME280;55128;50.230;18.944;2023-02-14T09:45:17;100336.34;;;7.04;65.71
63535;BME280;55128;50.230;18.944;2023-02-14T09:50:48;100321.28;;;7.17;65.20
63535;BME280;55128;50.230;18.944;2023-02-14T10:01:05;100320.91;;;7.85;64.75
63535;BME280;55128;50.230;18.944;2023-02-14T10:11:22;100321.78;;;7.87;63.35
63535;BME280;55128;50.230;18.944;2023-02-14T10:16:39;100330.59;;;7.86;63.19
63535;BME280;55128;50.230;18.944;2023-02-14T10:21:54;100325.03;;;8.20;63.10
63535;BME280;55128;50.230;18.944;2023-02-14T10:27:02;100334.75;;;8.17;62.87
63535;BME280;55128;50.230;18.944;2023-02-14T10:32:12;100316.81;;;8.53;61.65
63535;BME280;55128;50.230;18.944;2023-02-14T10:43:12;100325.97;;;9.04;60.21
63535;BME280;55128;50.230;18.944;2023-02-14T10:48:36;100323.91;;;8.48;60.17
63535;BME280;55128;50.230;18.944;2023-02-14T10:53:59;100320.50;;;8.34;60.82
63535;BME280;55128;50.230;18.944;2023-02-14T10:59:24;100318.97;;;8.07;60.73
63535;BME280;55128;50.230;18.944;2023-02-14T11:04:27;100297.72;;;8.16;61.29
63535;BME280;55128;50.230;18.944;2023-02-14T11:09:29;100305.56;;;8.27;60.57
63535;BME280;55128;50.230;18.944;2023-02-14T11:14:35;100295.22;;;8.01;60.28
63535;BME280;55128;50.230;18.944;2023-02-14T11:19:36;100305.13;;;7.75;61.33
63535;BME280;55128;50.230;18.944;2023-02-14T11:24:38;100294.63;;;7.65;61.53
63535;BME280;55128;50.230;18.944;2023-02-14T11:34:46;100288.28;;;7.89;60.97
63535;BME280;55128;50.230;18.944;2023-02-14T11:39:53;100289.13;;;7.92;61.36
63535;BME280;55128;50.230;18.944;2023-02-14T11:44:55;100274.19;;;7.84;60.46
63535;BME280;55128;50.230;18.944;2023-02-14T11:50:01;100276.13;;;7.63;61.53
63535;BME280;55128;50.230;18.944;2023-02-14T11:55:01;100269.97;;;7.61;61.17
63535;BME280;55128;50.230;18.944;2023-02-14T12:00:13;100268.19;;;7.60;62.13
63535;BME280;55128;50.230;18.944;2023-02-14T12:05:32;100261.97;;;7.70;62.30
63535;BME280;55128;50.230;18.944;2023-02-14T12:10:39;100256.06;;;7.36;62.76
63535;BME280;55128;50.230;18.944;2023-02-14T12:26:23;100248.59;;;7.89;60.69
63535;BME280;55128;50.230;18.944;2023-02-14T12:31:25;100241.72;;;7.68;61.20
63535;BME280;55128;50.230;18.944;2023-02-14T12:53:09;100227.47;;;7.86;60.77
63535;BME280;55128;50.230;18.944;2023-02-14T12:58:28;100226.53;;;7.90;61.62
63535;BME280;55128;50.230;18.944;2023-02-14T13:24:19;100204.88;;;7.48;62.22
63535;BME280;55128;50.230;18.944;2023-02-14T13:29:27;100207.50;;;7.51;62.56
63535;BME280;55128;50.230;18.944;2023-02-14T13:34:45;100197.81;;;7.50;61.44
63535;BME280;55128;50.230;18.944;2023-02-14T13:40:14;100203.06;;;7.54;61.74
63535;BME280;55128;50.230;18.944;2023-02-14T13:50:36;100209.03;;;7.76;61.05
63535;BME280;55128;50.230;18.944;2023-02-14T13:55:43;100199.44;;;7.68;60.72
63535;BME280;55128;50.230;18.944;2023-02-14T14:00:49;100197.59;;;7.79;61.12
63535;BME280;55128;50.230;18.944;2023-02-14T14:06:00;100210.81;;;7.74;60.90
63535;BME280;55128;50.230;18.944;2023-02-14T14:11:05;100208.16;;;7.76;60.35
63535;BME280;55128;50.230;18.944;2023-02-14T14:16:25;100195.94;;;7.64;60.98
63535;BME280;55128;50.230;18.944;2023-02-14T14:21:32;100201.19;;;7.66;61.86
63535;BME280;55128;50.230;18.944;2023-02-14T14:26:37;100195.88;;;7.72;60.71
63535;BME280;55128;50.230;18.944;2023-02-14T14:31:39;100199.53;;;7.54;61.25
63535;BME280;55128;50.230;18.944;2023-02-14T14:36:40;100212.81;;;7.48;60.84
63535;BME280;55128;50.230;18.944;2023-02-14T14:41:40;100206.66;;;7.44;60.99
63535;BME280;55128;50.230;18.944;2023-02-14T14:46:41;100210.34;;;7.25;61.29
63535;BME280;55128;50.230;18.944;2023-02-14T14:51:42;100209.41;;;7.30;61.53
63535;BME280;55128;50.230;18.944;2023-02-14T14:56:49;100200.59;;;7.30;61.86
63535;BME280;55128;50.230;18.944;2023-02-14T15:01:53;100200.63;;;7.27;61.42
63535;BME280;55128;50.230;18.944;2023-02-14T15:06:55;100194.44;;;7.29;61.91
63535;BME280;55128;50.230;18.944;2023-02-14T15:11:58;100197.06;;;7.32;61.67
63535;BME280;55128;50.230;18.944;2023-02-14T15:17:21;100193.59;;;7.27;62.01
63535;BME280;55128;50.230;18.944;2023-02-14T15:22:29;100193.63;;;7.21;62.32
63535;BME280;55128;50.230;18.944;2023-02-14T15:27:32;100192.81;;;7.08;62.93
63535;BME280;55128;50.230;18.944;2023-02-14T15:32:38;100193.75;;;6.99;62.68
63535;BME280;55128;50.230;18.944;2023-02-14T15:37:39;100198.25;;;6.84;63.28
63535;BME280;55128;50.230;18.944;2023-02-14T15:42:42;100197.41;;;6.75;63.57
63535;BME280;55128;50.230;18.944;2023-02-14T15:47:45;100198.34;;;6.68;64.04
63535;BME280;55128;50.230;18.944;2023-02-14T15:52:47;100202.72;;;6.72;63.70
63535;BME280;55128;50.230;18.944;2023-02-14T15:58:00;100204.44;;;6.78;63.13
63535;BME280;55128;50.230;18.944;2023-02-14T16:03:05;100211.53;;;6.64;63.76
63535;BME280;55128;50.230;18.944;2023-02-14T16:08:25;100208.97;;;6.50;62.87
63535;BME280;55128;50.230;18.944;2023-02-14T16:13:36;100220.41;;;6.39;63.83
63535;BME280;55128;50.230;18.944;2023-02-14T16:18:46;100219.53;;;6.39;63.44
63535;BME280;55128;50.230;18.944;2023-02-14T16:29:12;100221.25;;;6.54;64.01
63535;BME280;55128;50.230;18.944;2023-02-14T16:34:15;100226.53;;;6.54;63.97
63535;BME280;55128;50.230;18.944;2023-02-14T16:39:18;100222.16;;;6.43;64.53
63535;BME280;55128;50.230;18.944;2023-02-14T16:44:19;100235.34;;;6.50;63.86
63535;BME280;55128;50.230;18.944;2023-02-14T16:49:24;100237.94;;;6.54;64.26
63535;BME280;55128;50.230;18.944;2023-02-14T16:54:25;100236.19;;;6.59;64.12
63535;BME280;55128;50.230;18.944;2023-02-14T16:59:27;100235.34;;;6.43;64.80
63535;BME280;55128;50.230;18.944;2023-02-14T17:04:29;100243.31;;;6.33;64.87
63535;BME280;55128;50.230;18.944;2023-02-14T17:09:33;100248.56;;;6.27;64.96
63535;BME280;55128;50.230;18.944;2023-02-14T17:14:39;100246.84;;;6.27;65.26
63535;BME280;55128;50.230;18.944;2023-02-14T17:19:44;100238.88;;;6.41;65.25
63535;BME280;55128;50.230;18.944;2023-02-14T17:24:44;100243.25;;;6.50;65.01
63535;BME280;55128;50.230;18.944;2023-02-14T17:29:45;100243.25;;;6.47;65.20
63535;BME280;55128;50.230;18.944;2023-02-14T17:34:45;100237.09;;;6.41;65.92
63535;BME280;55128;50.230;18.944;2023-02-14T17:39:46;100240.69;;;6.25;65.55
63535;BME280;55128;50.230;18.944;2023-02-14T17:44:46;100245.94;;;6.33;66.60
63535;BME280;55128;50.230;18.944;2023-02-14T17:49:46;100245.06;;;6.31;66.42
63535;BME280;55128;50.230;18.944;2023-02-14T17:54:47;100247.72;;;6.26;66.21
63535;BME280;55128;50.230;18.944;2023-02-14T17:59:47;100248.59;;;6.20;66.55
63535;BME280;55128;50.230;18.944;2023-02-14T18:04:48;100246.81;;;6.21;66.71
63535;BME280;55128;50.230;18.944;2023-02-14T18:09:48;100247.72;;;6.09;67.95
63535;BME280;55128;50.230;18.944;2023-02-14T18:14:48;100249.50;;;6.04;68.13
63535;BME280;55128;50.230;18.944;2023-02-14T18:19:49;100249.50;;;6.09;67.84
63535;BME280;55128;50.230;18.944;2023-02-14T18:24:49;100245.97;;;6.10;67.85
63535;BME280;55128;50.230;18.944;2023-02-14T18:29:50;100243.34;;;6.08;67.71
63535;BME280;55128;50.230;18.944;2023-02-14T18:34:50;100236.31;;;6.04;67.89
63535;BME280;55128;50.230;18.944;2023-02-14T18:39:51;100241.59;;;6.02;68.16
63535;BME280;55128;50.230;18.944;2023-02-14T18:44:51;100238.09;;;5.96;68.10
63535;BME280;55128;50.230;18.944;2023-02-14T18:49:52;100232.78;;;5.83;68.73
63535;BME280;55128;50.230;18.944;2023-02-14T18:54:53;100225.75;;;5.85;68.92
63535;BME280;55128;50.230;18.944;2023-02-14T18:59:55;100227.53;;;5.80;68.99
63535;BME280;55128;50.230;18.944;2023-02-14T19:04:56;100227.53;;;5.79;69.24
63535;BME280;55128;50.230;18.944;2023-02-14T19:09:57;100222.25;;;5.67;69.78
63535;BME280;55128;50.230;18.944;2023-02-14T19:14:59;100214.34;;;5.80;69.45
63535;BME280;55128;50.230;18.944;2023-02-14T19:20:00;100213.47;;;5.72;69.54
63535;BME280;55128;50.230;18.944;2023-02-14T19:25:00;100217.84;;;5.61;69.74
63535;BME280;55128;50.230;18.944;2023-02-14T19:30:01;100209.94;;;5.61;69.96
63535;BME280;55128;50.230;18.944;2023-02-14T19:35:01;100207.31;;;5.53;70.34
63535;BME280;55128;50.230;18.944;2023-02-14T19:40:02;100203.81;;;5.70;69.79
63535;BME280;55128;50.230;18.944;2023-02-14T19:45:02;100217.88;;;5.64;70.46
63535;BME280;55128;50.230;18.944;2023-02-14T19:50:04;100217.84;;;5.62;70.06
63535;BME280;55128;50.230;18.944;2023-02-14T19:55:04;100220.50;;;5.64;69.98
63535;BME280;55128;50.230;18.944;2023-02-14T20:00:07;100223.13;;;5.61;70.40
63535;BME280;55128;50.230;18.944;2023-02-14T20:05:09;100232.78;;;5.50;70.41
63535;BME280;55128;50.230;18.944;2023-02-14T20:10:10;100229.28;;;5.58;70.24
63535;BME280;55128;50.230;18.944;2023-02-14T20:15:11;100217.84;;;5.52;70.65
63535;BME280;55128;50.230;18.944;2023-02-14T20:20:34;100222.25;;;5.43;70.63
63535;BME280;55128;50.230;18.944;2023-02-14T20:25:59;100216.13;;;5.43;71.16
63535;BME280;55128;50.230;18.944;2023-02-14T20:31:05;100212.59;;;5.47;70.86
63535;BME280;55128;50.230;18.944;2023-02-14T20:36:07;100220.50;;;5.45;71.35
63535;BME280;55128;50.230;18.944;2023-02-14T20:41:12;100210.84;;;5.48;70.71
63535;BME280;55128;50.230;18.944;2023-02-14T20:46:52;100212.56;;;5.36;71.45
63535;BME280;55128;50.230;18.944;2023-02-14T20:51:59;100217.84;;;5.38;71.48
63535;BME280;55128;50.230;18.944;2023-02-14T20:57:00;100215.25;;;5.42;71.43
63535;BME280;55128;50.230;18.944;2023-02-14T21:02:15;100205.59;;;5.37;71.30
63535;BME280;55128;50.230;18.944;2023-02-14T21:07:40;100212.59;;;5.33;71.80
63535;BME280;55128;50.230;18.944;2023-02-14T21:12:57;100205.56;;;5.34;70.77
63535;BME280;55128;50.230;18.944;2023-02-14T21:18:06;100201.16;;;5.40;71.16
63535;BME280;55128;50.230;18.944;2023-02-14T21:34:06;100188.84;;;5.02;72.03
63535;BME280;55128;50.230;18.944;2023-02-14T21:39:07;100185.34;;;5.16;71.75
63535;BME280;55128;50.230;18.944;2023-02-14T21:44:07;100183.59;;;5.07;72.10
63535;BME280;55128;50.230;18.944;2023-02-14T21:49:10;100182.66;;;4.90;72.18
63535;BME280;55128;50.230;18.944;2023-02-14T21:54:30;100178.31;;;4.90;72.83
63535;BME280;55128;50.230;18.944;2023-02-14T21:59:30;100171.28;;;4.95;71.47
63535;BME280;55128;50.230;18.944;2023-02-14T22:04:31;100164.25;;;4.93;71.44
63535;BME280;55128;50.230;18.944;2023-02-14T22:09:31;100160.69;;;4.64;72.81
63535;BME280;55128;50.230;18.944;2023-02-14T22:14:32;100170.34;;;4.68;72.57
63535;BME280;55128;50.230;18.944;2023-02-14T22:19:32;100164.19;;;4.73;72.39
63535;BME280;55128;50.230;18.944;2023-02-14T22:24:32;100157.19;;;4.65;72.99
63535;BME280;55128;50.230;18.944;2023-02-14T22:29:33;100159.78;;;4.55;72.89
63535;BME280;55128;50.230;18.944;2023-02-14T22:34:33;100152.78;;;4.61;72.85
63535;BME280;55128;50.230;18.944;2023-02-14T22:39:33;100158.00;;;4.49;73.22
63535;BME280;55128;50.230;18.944;2023-02-14T22:44:34;100159.66;;;4.27;73.99
63535;BME280;55128;50.230;18.944;2023-02-14T22:49:34;100152.69;;;4.35;73.43
63535;BME280;55128;50.230;18.944;2023-02-14T22:54:34;100153.56;;;4.28;73.47
63535;BME280;55128;50.230;18.944;2023-02-14T22:59:35;100152.56;;;4.11;74.11
63535;BME280;55128;50.230;18.944;2023-02-14T23:04:35;100144.72;;;4.18;73.77
63535;BME280;55128;50.230;18.944;2023-02-14T23:09:36;100140.31;;;4.13;73.91
63535;BME280;55128;50.230;18.944;2023-02-14T23:14:36;100135.91;;;4.07;73.68
63535;BME280;55128;50.230;18.944;2023-02-14T23:19:55;100135.03;;;4.02;73.79
63535;BME280;55128;50.230;18.944;2023-02-14T23:25:14;100128.00;;;4.01;73.32
63535;BME280;55128;50.230;18.944;2023-02-14T23:30:16;100128.88;;;3.97;73.28
63535;BME280;55128;50.230;18.944;2023-02-14T23:35:17;100118.25;;;3.78;74.21
63535;BME280;55128;50.230;18.944;2023-02-14T23:40:17;100120.03;;;3.84;73.84
63535;BME280;55128;50.230;18.944;2023-02-14T23:45:18;100122.59;;;3.75;74.29
63535;BME280;55128;50.230;18.944;2023-02-14T23:50:33;100120.00;;;3.76;74.34
63535;BME280;55128;50.230;18.944;2023-02-14T23:55:34;100114.78;;;3.79;74.10
